sensor_id;sensor_type;location;lat;lon;timestamp;P1;durP1;ratioP1;P2;durP2;ratioP2
56201;SDS011;42117;50.360;3.508;2022-10-20T00:00:52;8.05;;;4.20;;
56201;SDS011;42117;50.360;3.508;2022-10-20T00:03:18;7.07;;;4.03;;
56201;SDS011;42117;50.360;3.508;2022-10-20T00:05:44;6.72;;;4.70;;
56201;SDS011;42117;50.360;3.508;2022-10-20T00:08:10;10.65;;;5.18;;
56201;SDS011;42117;50.360;3.508;2022-10-20T00:10:36;7.05;;;3.75;;
56201;SDS011;42117;50.360;3.508;2022-10-20T00:13:02;8.82;;;4.53;;
56201;SDS011;42117;50.360;3.508;2022-10-20T00:15:28;7.72;;;4.57;;
56201;SDS011;42117;50.360;3.508;2022-10-20T00:17:54;5.45;;;3.70;;
56201;SDS011;42117;50.360;3.508;2022-10-20T00:20:20;8.15;;;4.25;;
56201;SDS011;42117;50.360;3.508;2022-10-20T00:22:46;7.70;;;4.05;;
56201;SDS011;42117;50.360;3.508;2022-10-20T00:25:13;5.95;;;4.25;;
56201;SDS011;42117;50.360;3.508;2022-10-20T00:27:38;7.22;;;4.07;;
56201;SDS011;42117;50.360;3.508;2022-10-20T00:30:05;5.43;;;3.83;;
56201;SDS011;42117;50.360;3.508;2022-10-20T00:32:31;8.02;;;4.10;;
56201;SDS011;42117;50.360;3.508;2022-10-20T00:34:57;11.98;;;3.95;;
56201;SDS011;42117;50.360;3.508;2022-10-20T00:37:23;12.02;;;4.15;;
56201;SDS011;42117;50.360;3.508;2022-10-20T00:39:49;12.48;;;3.78;;
56201;SDS011;42117;50.360;3.508;2022-10-20T00:42:18;7.88;;;4.03;;
56201;SDS011;42117;50.360;3.508;2022-10-20T00:47:10;6.15;;;3.90;;
56201;SDS011;42117;50.360;3.508;2022-10-20T00:49:37;13.10;;;4.18;;
56201;SDS011;42117;50.360;3.508;2022-10-20T00:52:03;6.40;;;4.38;;
56201;SDS011;42117;50.360;3.508;2022-10-20T00:54:30;12.90;;;4.25;;
56201;SDS011;42117;50.360;3.508;2022-10-20T00:56:56;10.35;;;4.32;;
56201;SDS011;42117;50.360;3.508;2022-10-20T00:59:24;4.53;;;3.30;;
56201;SDS011;42117;50.360;3.508;2022-10-20T01:01:51;15.65;;;4.78;;
56201;SDS011;42117;50.360;3.508;2022-10-20T01:04:18;7.03;;;4.55;;
56201;SDS011;42117;50.360;3.508;2022-10-20T01:06:44;8.25;;;4.38;;
56201;SDS011;42117;50.360;3.508;2022-10-20T01:09:10;7.82;;;4.70;;
56201;SDS011;42117;50.360;3.508;2022-10-20T01:11:53;7.93;;;3.75;;
56201;SDS011;42117;50.360;3.508;2022-10-20T01:24:44;9.17;;;5.23;;
56201;SDS011;42117;50.360;3.508;2022-10-20T01:27:24;7.15;;;4.35;;
56201;SDS011;42117;50.360;3.508;2022-10-20T01:32:38;11.07;;;4.15;;
56201;SDS011;42117;50.360;3.508;2022-10-20T01:35:12;8.07;;;4.32;;
56201;SDS011;42117;50.360;3.508;2022-10-20T01:37:45;5.35;;;4.18;;
56201;SDS011;42117;50.360;3.508;2022-10-20T01:40:18;8.18;;;4.28;;
56201;SDS011;42117;50.360;3.508;2022-10-20T01:42:48;7.15;;;4.18;;
56201;SDS011;42117;50.360;3.508;2022-10-20T01:45:15;4.97;;;3.78;;
56201;SDS011;42117;50.360;3.508;2022-10-20T01:47:42;7.75;;;4.38;;
56201;SDS011;42117;50.360;3.508;2022-10-20T01:50:09;11.85;;;4.70;;
56201;SDS011;42117;50.360;3.508;2022-10-20T01:52:37;7.00;;;4.18;;
56201;SDS011;42117;50.360;3.508;2022-10-20T01:55:09;7.40;;;3.97;;
56201;SDS011;42117;50.360;3.508;2022-10-20T02:00:17;8.00;;;4.72;;
56201;SDS011;42117;50.360;3.508;2022-10-20T02:07:51;10.63;;;5.65;;
56201;SDS011;42117;50.360;3.508;2022-10-20T02:10:23;9.75;;;5.03;;
56201;SDS011;42117;50.360;3.508;2022-10-20T02:12:55;8.68;;;5.00;;
56201;SDS011;42117;50.360;3.508;2022-10-20T02:15:23;9.27;;;4.72;;
56201;SDS011;42117;50.360;3.508;2022-10-20T02:17:51;12.40;;;5.95;;
56201;SDS011;42117;50.360;3.508;2022-10-20T02:20:18;10.00;;;4.95;;
56201;SDS011;42117;50.360;3.508;2022-10-20T02:22:44;7.70;;;5.65;;
56201;SDS011;42117;50.360;3.508;2022-10-20T02:25:11;9.18;;;5.35;;
56201;SDS011;42117;50.360;3.508;2022-10-20T02:27:38;10.05;;;5.10;;
56201;SDS011;42117;50.360;3.508;2022-10-20T02:30:06;8.75;;;5.18;;
56201;SDS011;42117;50.360;3.508;2022-10-20T02:32:34;11.70;;;5.22;;
56201;SDS011;42117;50.360;3.508;2022-10-20T02:35:04;11.13;;;5.13;;
56201;SDS011;42117;50.360;3.508;2022-10-20T02:37:30;12.98;;;5.10;;
56201;SDS011;42117;50.360;3.508;2022-10-20T02:39:56;8.00;;;5.13;;
56201;SDS011;42117;50.360;3.508;2022-10-20T02:42:22;7.10;;;4.82;;
56201;SDS011;42117;50.360;3.508;2022-10-20T02:44:49;8.20;;;5.28;;
56201;SDS011;42117;50.360;3.508;2022-10-20T02:47:15;6.70;;;5.07;;
56201;SDS011;42117;50.360;3.508;2022-10-20T02:49:43;8.63;;;4.78;;
56201;SDS011;42117;50.360;3.508;2022-10-20T02:52:09;7.53;;;4.78;;
56201;SDS011;42117;50.360;3.508;2022-10-20T02:54:35;8.43;;;4.57;;
56201;SDS011;42117;50.360;3.508;2022-10-20T02:57:02;6.63;;;4.97;;
56201;SDS011;42117;50.360;3.508;2022-10-20T02:59:28;8.65;;;4.68;;
56201;SDS011;42117;50.360;3.508;2022-10-20T03:01:54;12.48;;;5.32;;
56201;SDS011;42117;50.360;3.508;2022-10-20T03:04:20;5.88;;;4.88;;
56201;SDS011;42117;50.360;3.508;2022-10-20T03:06:46;6.13;;;4.32;;
56201;SDS011;42117;50.360;3.508;2022-10-20T03:09:12;11.82;;;5.78;;
56201;SDS011;42117;50.360;3.508;2022-10-20T03:11:38;7.75;;;4.85;;
56201;SDS011;42117;50.360;3.508;2022-10-20T03:14:04;8.55;;;5.03;;
56201;SDS011;42117;50.360;3.508;2022-10-20T03:16:30;7.80;;;4.78;;
56201;SDS011;42117;50.360;3.508;2022-10-20T03:18:56;9.93;;;4.53;;
56201;SDS011;42117;50.360;3.508;2022-10-20T03:21:22;7.32;;;4.45;;
56201;SDS011;42117;50.360;3.508;2022-10-20T03:23:48;8.43;;;4.80;;
56201;SDS011;42117;50.360;3.508;2022-10-20T03:26:14;10.57;;;5.40;;
56201;SDS011;42117;50.360;3.508;2022-10-20T03:28:40;8.02;;;4.43;;
56201;SDS011;42117;50.360;3.508;2022-10-20T03:31:06;8.73;;;5.07;;
56201;SDS011;42117;50.360;3.508;2022-10-20T03:33:33;8.32;;;5.10;;
56201;SDS011;42117;50.360;3.508;2022-10-20T03:35:59;12.63;;;5.38;;
56201;SDS011;42117;50.360;3.508;2022-10-20T03:38:25;12.93;;;5.22;;
56201;SDS011;42117;50.360;3.508;2022-10-20T03:40:51;9.00;;;4.80;;
56201;SDS011;42117;50.360;3.508;2022-10-20T03:43:17;10.10;;;4.65;;
56201;SDS011;42117;50.360;3.508;2022-10-20T03:45:43;8.13;;;5.35;;
56201;SDS011;42117;50.360;3.508;2022-10-20T03:48:09;13.82;;;5.25;;
56201;SDS011;42117;50.360;3.508;2022-10-20T03:50:39;7.35;;;4.65;;
56201;SDS011;42117;50.360;3.508;2022-10-20T03:53:06;12.63;;;5.82;;
56201;SDS011;42117;50.360;3.508;2022-10-20T03:55:32;8.73;;;4.97;;
56201;SDS011;42117;50.360;3.508;2022-10-20T03:57:58;9.52;;;4.78;;
56201;SDS011;42117;50.360;3.508;2022-10-20T04:00:24;12.48;;;4.68;;
56201;SDS011;42117;50.360;3.508;2022-10-20T04:02:50;16.58;;;4.88;;
56201;SDS011;42117;50.360;3.508;2022-10-20T04:05:17;10.63;;;6.15;;
56201;SDS011;42117;50.360;3.508;2022-10-20T04:07:44;11.90;;;4.78;;
56201;SDS011;42117;50.360;3.508;2022-10-20T04:10:10;8.52;;;5.47;;
56201;SDS011;42117;50.360;3.508;2022-10-20T04:12:36;15.85;;;4.60;;
56201;SDS011;42117;50.360;3.508;2022-10-20T04:15:03;9.20;;;4.95;;
56201;SDS011;42117;50.360;3.508;2022-10-20T04:17:29;10.63;;;5.50;;
56201;SDS011;42117;50.360;3.508;2022-10-20T04:19:55;12.55;;;5.25;;
56201;SDS011;42117;50.360;3.508;2022-10-20T04:22:21;11.13;;;5.20;;
56201;SDS011;42117;50.360;3.508;2022-10-20T04:24:47;14.40;;;4.80;;
56201;SDS011;42117;50.360;3.508;2022-10-20T04:27:13;7.75;;;5.03;;
56201;SDS011;42117;50.360;3.508;2022-10-20T04:29:39;9.52;;;5.60;;
56201;SDS011;42117;50.360;3.508;2022-10-20T04:32:05;9.70;;;4.53;;
56201;SDS011;42117;50.360;3.508;2022-10-20T04:34:32;8.57;;;5.00;;
56201;SDS011;42117;50.360;3.508;2022-10-20T04:36:58;5.45;;;4.30;;
56201;SDS011;42117;50.360;3.508;2022-10-20T04:39:24;13.75;;;4.40;;
56201;SDS011;42117;50.360;3.508;2022-10-20T04:41:50;10.68;;;4.38;;
56201;SDS011;42117;50.360;3.508;2022-10-20T04:44:16;5.13;;;3.90;;
56201;SDS011;42117;50.360;3.508;2022-10-20T04:46:42;9.30;;;4.40;;
56201;SDS011;42117;50.360;3.508;2022-10-20T04:49:08;10.13;;;5.18;;
56201;SDS011;42117;50.360;3.508;2022-10-20T04:51:34;8.63;;;4.35;;
56201;SDS011;42117;50.360;3.508;2022-10-20T04:54:00;8.90;;;4.70;;
56201;SDS011;42117;50.360;3.508;2022-10-20T04:56:26;7.50;;;2.38;;
56201;SDS011;42117;50.360;3.508;2022-10-20T04:58:53;3.92;;;2.45;;
56201;SDS011;42117;50.360;3.508;2022-10-20T05:01:20;11.60;;;4.65;;
56201;SDS011;42117;50.360;3.508;2022-10-20T05:03:46;10.43;;;5.55;;
56201;SDS011;42117;50.360;3.508;2022-10-20T05:06:16;14.05;;;4.53;;
56201;SDS011;42117;50.360;3.508;2022-10-20T05:08:44;7.68;;;5.00;;
56201;SDS011;42117;50.360;3.508;2022-10-20T05:11:10;6.22;;;4.32;;
56201;SDS011;42117;50.360;3.508;2022-10-20T05:13:37;7.53;;;4.78;;
56201;SDS011;42117;50.360;3.508;2022-10-20T05:16:03;8.30;;;4.65;;
56201;SDS011;42117;50.360;3.508;2022-10-20T05:18:29;9.27;;;4.72;;
56201;SDS011;42117;50.360;3.508;2022-10-20T05:20:55;8.57;;;4.20;;
56201;SDS011;42117;50.360;3.508;2022-10-20T05:23:22;11.88;;;4.45;;
56201;SDS011;42117;50.360;3.508;2022-10-20T05:25:48;8.82;;;4.32;;
56201;SDS011;42117;50.360;3.508;2022-10-20T05:28:14;7.18;;;3.60;;
56201;SDS011;42117;50.360;3.508;2022-10-20T05:30:40;8.18;;;4.45;;
56201;SDS011;42117;50.360;3.508;2022-10-20T05:33:06;7.88;;;4.53;;
56201;SDS011;42117;50.360;3.508;2022-10-20T05:35:32;8.25;;;4.63;;
56201;SDS011;42117;50.360;3.508;2022-10-20T05:37:58;20.95;;;3.90;;
56201;SDS011;42117;50.360;3.508;2022-10-20T05:40:25;8.68;;;3.88;;
56201;SDS011;42117;50.360;3.508;2022-10-20T05:42:50;11.57;;;4.15;;
56201;SDS011;42117;50.360;3.508;2022-10-20T05:45:16;20.20;;;4.78;;
56201;SDS011;42117;50.360;3.508;2022-10-20T05:47:42;8.23;;;4.68;;
56201;SDS011;42117;50.360;3.508;2022-10-20T05:50:08;10.48;;;4.82;;
56201;SDS011;42117;50.360;3.508;2022-10-20T05:52:35;9.73;;;3.78;;
56201;SDS011;42117;50.360;3.508;2022-10-20T05:55:01;7.45;;;4.47;;
56201;SDS011;42117;50.360;3.508;2022-10-20T05:57:27;9.75;;;4.07;;
56201;SDS011;42117;50.360;3.508;2022-10-20T05:59:53;7.60;;;3.08;;
56201;SDS011;42117;50.360;3.508;2022-10-20T06:02:19;9.75;;;3.42;;
56201;SDS011;42117;50.360;3.508;2022-10-20T06:04:46;7.57;;;3.70;;
56201;SDS011;42117;50.360;3.508;2022-10-20T06:07:12;8.10;;;3.58;;
56201;SDS011;42117;50.360;3.508;2022-10-20T06:09:38;3.97;;;3.17;;
56201;SDS011;42117;50.360;3.508;2022-10-20T06:12:04;10.05;;;4.70;;
56201;SDS011;42117;50.360;3.508;2022-10-20T06:14:30;8.38;;;4.55;;
56201;SDS011;42117;50.360;3.508;2022-10-20T06:16:56;9.20;;;4.65;;
56201;SDS011;42117;50.360;3.508;2022-10-20T06:19:22;8.40;;;4.38;;
56201;SDS011;42117;50.360;3.508;2022-10-20T06:21:49;7.53;;;3.08;;
56201;SDS011;42117;50.360;3.508;2022-10-20T06:24:15;16.67;;;4.85;;
56201;SDS011;42117;50.360;3.508;2022-10-20T06:26:41;6.30;;;4.90;;
56201;SDS011;42117;50.360;3.508;2022-10-20T06:29:12;7.82;;;5.00;;
56201;SDS011;42117;50.360;3.508;2022-10-20T06:31:42;9.00;;;4.47;;
56201;SDS011;42117;50.360;3.508;2022-10-20T06:34:10;10.15;;;4.63;;
56201;SDS011;42117;50.360;3.508;2022-10-20T06:36:38;10.25;;;4.82;;
56201;SDS011;42117;50.360;3.508;2022-10-20T06:39:05;13.90;;;4.30;;
56201;SDS011;42117;50.360;3.508;2022-10-20T06:41:32;7.40;;;4.32;;
56201;SDS011;42117;50.360;3.508;2022-10-20T06:43:58;12.90;;;4.30;;
56201;SDS011;42117;50.360;3.508;2022-10-20T06:46:27;11.43;;;5.18;;
56201;SDS011;42117;50.360;3.508;2022-10-20T06:48:54;17.50;;;4.65;;
56201;SDS011;42117;50.360;3.508;2022-10-20T06:51:20;7.80;;;4.25;;
56201;SDS011;42117;50.360;3.508;2022-10-20T06:53:46;10.60;;;4.97;;
56201;SDS011;42117;50.360;3.508;2022-10-20T06:56:14;8.77;;;4.65;;
56201;SDS011;42117;50.360;3.508;2022-10-20T06:58:41;11.40;;;5.03;;
56201;SDS011;42117;50.360;3.508;2022-10-20T07:01:10;12.70;;;4.43;;
56201;SDS011;42117;50.360;3.508;2022-10-20T07:03:36;9.65;;;5.00;;
56201;SDS011;42117;50.360;3.508;2022-10-20T07:06:03;10.93;;;4.55;;
56201;SDS011;42117;50.360;3.508;2022-10-20T07:08:30;5.30;;;3.35;;
56201;SDS011;42117;50.360;3.508;2022-10-20T07:13:28;11.43;;;5.28;;
56201;SDS011;42117;50.360;3.508;2022-10-20T07:15:55;9.63;;;4.45;;
56201;SDS011;42117;50.360;3.508;2022-10-20T07:18:22;8.90;;;3.88;;
56201;SDS011;42117;50.360;3.508;2022-10-20T07:20:48;14.30;;;5.43;;
56201;SDS011;42117;50.360;3.508;2022-10-20T07:23:14;12.70;;;5.65;;
56201;SDS011;42117;50.360;3.508;2022-10-20T07:25:40;9.35;;;4.68;;
56201;SDS011;42117;50.360;3.508;2022-10-20T07:28:06;11.48;;;5.60;;
56201;SDS011;42117;50.360;3.508;2022-10-20T07:30:36;9.30;;;5.15;;
56201;SDS011;42117;50.360;3.508;2022-10-20T07:33:02;17.98;;;6.95;;
56201;SDS011;42117;50.360;3.508;2022-10-20T07:35:28;8.40;;;5.10;;
56201;SDS011;42117;50.360;3.508;2022-10-20T07:37:54;11.85;;;5.38;;
56201;SDS011;42117;50.360;3.508;2022-10-20T07:40:20;12.88;;;5.43;;
56201;SDS011;42117;50.360;3.508;2022-10-20T07:42:46;7.97;;;4.97;;
56201;SDS011;42117;50.360;3.508;2022-10-20T07:45:12;8.95;;;5.50;;
56201;SDS011;42117;50.360;3.508;2022-10-20T07:47:38;13.27;;;6.25;;
56201;SDS011;42117;50.360;3.508;2022-10-20T07:50:04;14.00;;;5.57;;
56201;SDS011;42117;50.360;3.508;2022-10-20T07:52:31;11.48;;;4.78;;
56201;SDS011;42117;50.360;3.508;2022-10-20T07:54:57;14.68;;;6.38;;
56201;SDS011;42117;50.360;3.508;2022-10-20T07:57:23;14.70;;;6.55;;
56201;SDS011;42117;50.360;3.508;2022-10-20T07:59:49;11.13;;;5.95;;
56201;SDS011;42117;50.360;3.508;2022-10-20T08:02:15;17.77;;;5.95;;
56201;SDS011;42117;50.360;3.508;2022-10-20T08:04:41;10.68;;;5.47;;
56201;SDS011;42117;50.360;3.508;2022-10-20T08:07:10;9.65;;;5.50;;
56201;SDS011;42117;50.360;3.508;2022-10-20T08:09:37;10.13;;;5.63;;
56201;SDS011;42117;50.360;3.508;2022-10-20T08:12:03;9.57;;;5.75;;
56201;SDS011;42117;50.360;3.508;2022-10-20T08:14:29;9.05;;;5.38;;
56201;SDS011;42117;50.360;3.508;2022-10-20T08:16:58;12.65;;;5.78;;
56201;SDS011;42117;50.360;3.508;2022-10-20T08:19:27;13.32;;;5.70;;
56201;SDS011;42117;50.360;3.508;2022-10-20T08:21:53;18.02;;;7.13;;
56201;SDS011;42117;50.360;3.508;2022-10-20T08:24:19;12.88;;;6.20;;
56201;SDS011;42117;50.360;3.508;2022-10-20T08:26:45;16.13;;;6.10;;
56201;SDS011;42117;50.360;3.508;2022-10-20T08:29:11;11.65;;;5.47;;
56201;SDS011;42117;50.360;3.508;2022-10-20T08:31:37;11.68;;;5.30;;
56201;SDS011;42117;50.360;3.508;2022-10-20T08:34:03;8.52;;;4.93;;
56201;SDS011;42117;50.360;3.508;2022-10-20T08:36:29;10.85;;;6.03;;
56201;SDS011;42117;50.360;3.508;2022-10-20T08:38:58;17.08;;;5.85;;
56201;SDS011;42117;50.360;3.508;2022-10-20T08:41:26;9.70;;;5.75;;
56201;SDS011;42117;50.360;3.508;2022-10-20T08:43:53;9.80;;;5.10;;
56201;SDS011;42117;50.360;3.508;2022-10-20T08:46:22;15.80;;;6.07;;
56201;SDS011;42117;50.360;3.508;2022-10-20T08:48:49;9.02;;;5.05;;
56201;SDS011;42117;50.360;3.508;2022-10-20T08:51:19;8.80;;;5.88;;
56201;SDS011;42117;50.360;3.508;2022-10-20T08:53:46;12.05;;;5.38;;
56201;SDS011;42117;50.360;3.508;2022-10-20T08:56:13;10.77;;;5.50;;
56201;SDS011;42117;50.360;3.508;2022-10-20T08:58:40;12.25;;;5.70;;
56201;SDS011;42117;50.360;3.508;2022-10-20T09:01:13;12.25;;;6.07;;
56201;SDS011;42117;50.360;3.508;2022-10-20T09:03:41;11.15;;;5.35;;
56201;SDS011;42117;50.360;3.508;2022-10-20T09:06:11;16.83;;;6.32;;
56201;SDS011;42117;50.360;3.508;2022-10-20T09:08:38;9.93;;;5.38;;
56201;SDS011;42117;50.360;3.508;2022-10-20T09:11:05;11.10;;;5.50;;
56201;SDS011;42117;50.360;3.508;2022-10-20T09:13:32;13.27;;;5.35;;
56201;SDS011;42117;50.360;3.508;2022-10-20T09:16:06;11.20;;;5.90;;
56201;SDS011;42117;50.360;3.508;2022-10-20T09:18:32;11.68;;;5.32;;
56201;SDS011;42117;50.360;3.508;2022-10-20T09:23:44;12.93;;;6.90;;
56201;SDS011;42117;50.360;3.508;2022-10-20T09:26:18;9.27;;;5.05;;
56201;SDS011;42117;50.360;3.508;2022-10-20T09:28:48;13.48;;;6.05;;
56201;SDS011;42117;50.360;3.508;2022-10-20T09:31:19;5.05;;;3.40;;
56201;SDS011;42117;50.360;3.508;2022-10-20T09:33:45;7.88;;;5.57;;
56201;SDS011;42117;50.360;3.508;2022-10-20T09:36:12;11.18;;;5.97;;
56201;SDS011;42117;50.360;3.508;2022-10-20T09:38:42;8.63;;;4.97;;
56201;SDS011;42117;50.360;3.508;2022-10-20T09:41:14;9.57;;;5.13;;
56201;SDS011;42117;50.360;3.508;2022-10-20T09:43:54;9.23;;;5.78;;
56201;SDS011;42117;50.360;3.508;2022-10-20T09:46:21;9.20;;;4.95;;
56201;SDS011;42117;50.360;3.508;2022-10-20T09:48:48;12.02;;;6.28;;
56201;SDS011;42117;50.360;3.508;2022-10-20T09:51:19;15.00;;;4.95;;
56201;SDS011;42117;50.360;3.508;2022-10-20T09:56:12;9.00;;;4.72;;
56201;SDS011;42117;50.360;3.508;2022-10-20T09:58:47;10.23;;;4.88;;
56201;SDS011;42117;50.360;3.508;2022-10-20T10:01:14;4.35;;;3.40;;
56201;SDS011;42117;50.360;3.508;2022-10-20T10:03:41;9.57;;;4.75;;
56201;SDS011;42117;50.360;3.508;2022-10-20T10:06:30;5.07;;;3.75;;
56201;SDS011;42117;50.360;3.508;2022-10-20T10:08:57;6.28;;;3.47;;
56201;SDS011;42117;50.360;3.508;2022-10-20T10:11:33;4.47;;;3.30;;
56201;SDS011;42117;50.360;3.508;2022-10-20T10:14:00;6.07;;;4.22;;
56201;SDS011;42117;50.360;3.508;2022-10-20T10:16:26;5.45;;;3.70;;
56201;SDS011;42117;50.360;3.508;2022-10-20T10:19:02;7.40;;;3.53;;
56201;SDS011;42117;50.360;3.508;2022-10-20T10:21:29;5.53;;;2.78;;
56201;SDS011;42117;50.360;3.508;2022-10-20T10:23:56;8.50;;;2.88;;
56201;SDS011;42117;50.360;3.508;2022-10-20T10:29:25;6.05;;;2.92;;
56201;SDS011;42117;50.360;3.508;2022-10-20T10:31:56;3.90;;;2.30;;
56201;SDS011;42117;50.360;3.508;2022-10-20T10:36:49;7.03;;;2.50;;
56201;SDS011;42117;50.360;3.508;2022-10-20T10:39:15;10.38;;;3.00;;
56201;SDS011;42117;50.360;3.508;2022-10-20T10:46:40;10.25;;;2.97;;
56201;SDS011;42117;50.360;3.508;2022-10-20T10:56:55;10.75;;;3.15;;
56201;SDS011;42117;50.360;3.508;2022-10-20T10:59:32;6.78;;;2.85;;
56201;SDS011;42117;50.360;3.508;2022-10-20T11:07:04;3.10;;;2.15;;
56201;SDS011;42117;50.360;3.508;2022-10-20T11:14:45;4.32;;;2.80;;
56201;SDS011;42117;50.360;3.508;2022-10-20T11:17:28;5.00;;;2.78;;
56201;SDS011;42117;50.360;3.508;2022-10-20T11:25:04;4.75;;;2.03;;
56201;SDS011;42117;50.360;3.508;2022-10-20T11:27:34;9.00;;;2.90;;
56201;SDS011;42117;50.360;3.508;2022-10-20T11:30:03;8.07;;;2.70;;
56201;SDS011;42117;50.360;3.508;2022-10-20T11:32:39;8.73;;;2.38;;
56201;SDS011;42117;50.360;3.508;2022-10-20T11:40:21;2.90;;;1.83;;
56201;SDS011;42117;50.360;3.508;2022-10-20T11:42:56;3.35;;;2.03;;
56201;SDS011;42117;50.360;3.508;2022-10-20T11:47:50;2.45;;;1.75;;
56201;SDS011;42117;50.360;3.508;2022-10-20T11:50:17;2.08;;;1.98;;
56201;SDS011;42117;50.360;3.508;2022-10-20T12:00:29;4.75;;;2.97;;
56201;SDS011;42117;50.360;3.508;2022-10-20T12:11:12;6.05;;;1.98;;
56201;SDS011;42117;50.360;3.508;2022-10-20T12:13:38;4.40;;;1.60;;
56201;SDS011;42117;50.360;3.508;2022-10-20T12:18:32;1.52;;;1.23;;
56201;SDS011;42117;50.360;3.508;2022-10-20T12:20:59;0.98;;;0.98;;
56201;SDS011;42117;50.360;3.508;2022-10-20T12:28:51;3.72;;;1.20;;
56201;SDS011;42117;50.360;3.508;2022-10-20T12:31:17;3.45;;;1.23;;
56201;SDS011;42117;50.360;3.508;2022-10-20T12:38:42;9.75;;;1.52;;
56201;SDS011;42117;50.360;3.508;2022-10-20T12:41:08;5.10;;;1.33;;
56201;SDS011;42117;50.360;3.508;2022-10-20T12:43:48;5.05;;;1.52;;
56201;SDS011;42117;50.360;3.508;2022-10-20T12:46:25;3.80;;;1.27;;
56201;SDS011;42117;50.360;3.508;2022-10-20T12:48:53;4.38;;;1.50;;
56201;SDS011;42117;50.360;3.508;2022-10-20T12:54:23;7.22;;;1.58;;
56201;SDS011;42117;50.360;3.508;2022-10-20T12:56:50;1.55;;;1.45;;
56201;SDS011;42117;50.360;3.508;2022-10-20T12:59:21;5.10;;;1.08;;
56201;SDS011;42117;50.360;3.508;2022-10-20T13:10:23;2.85;;;1.40;;
56201;SDS011;42117;50.360;3.508;2022-10-20T13:12:49;2.55;;;1.00;;
56201;SDS011;42117;50.360;3.508;2022-10-20T13:15:16;6.78;;;1.20;;
56201;SDS011;42117;50.360;3.508;2022-10-20T13:17:49;3.50;;;1.00;;
56201;SDS011;42117;50.360;3.508;2022-10-20T13:23:09;3.95;;;0.70;;
56201;SDS011;42117;50.360;3.508;2022-10-20T13:25:49;2.93;;;0.83;;
56201;SDS011;42117;50.360;3.508;2022-10-20T13:33:34;2.08;;;0.85;;
56201;SDS011;42117;50.360;3.508;2022-10-20T13:38:35;2.45;;;0.95;;
56201;SDS011;42117;50.360;3.508;2022-10-20T13:44:03;4.63;;;1.00;;
56201;SDS011;42117;50.360;3.508;2022-10-20T13:52:02;1.35;;;0.90;;
56201;SDS011;42117;50.360;3.508;2022-10-20T13:54:31;0.55;;;0.55;;
56201;SDS011;42117;50.360;3.508;2022-10-20T13:56:58;2.22;;;0.60;;
56201;SDS011;42117;50.360;3.508;2022-10-20T13:59:25;4.85;;;0.80;;
56201;SDS011;42117;50.360;3.508;2022-10-20T14:01:53;2.30;;;1.10;;
56201;SDS011;42117;50.360;3.508;2022-10-20T14:04:31;2.20;;;0.90;;
56201;SDS011;42117;50.360;3.508;2022-10-20T14:07:10;8.95;;;1.00;;
56201;SDS011;42117;50.360;3.508;2022-10-20T14:09:41;2.05;;;0.60;;
56201;SDS011;42117;50.360;3.508;2022-10-20T14:12:08;1.60;;;1.05;;
56201;SDS011;42117;50.360;3.508;2022-10-20T14:14:36;0.90;;;0.80;;
56201;SDS011;42117;50.360;3.508;2022-10-20T14:17:07;1.52;;;0.77;;
56201;SDS011;42117;50.360;3.508;2022-10-20T14:19:34;1.42;;;0.63;;
56201;SDS011;42117;50.360;3.508;2022-10-20T14:22:15;0.45;;;0.45;;
56201;SDS011;42117;50.360;3.508;2022-10-20T14:24:42;3.03;;;0.88;;
56201;SDS011;42117;50.360;3.508;2022-10-20T14:27:22;2.97;;;0.90;;
56201;SDS011;42117;50.360;3.508;2022-10-20T14:29:49;0.57;;;0.57;;
56201;SDS011;42117;50.360;3.508;2022-10-20T14:32:17;0.90;;;0.70;;
56201;SDS011;42117;50.360;3.508;2022-10-20T14:34:59;0.68;;;0.68;;
56201;SDS011;42117;50.360;3.508;2022-10-20T14:37:36;2.63;;;0.70;;
56201;SDS011;42117;50.360;3.508;2022-10-20T14:43:17;0.40;;;0.40;;
56201;SDS011;42117;50.360;3.508;2022-10-20T14:45:52;6.28;;;0.82;;
56201;SDS011;42117;50.360;3.508;2022-10-20T14:48:19;7.85;;;1.15;;
56201;SDS011;42117;50.360;3.508;2022-10-20T14:50:46;1.02;;;0.60;;
56201;SDS011;42117;50.360;3.508;2022-10-20T14:55:49;1.17;;;0.60;;
56201;SDS011;42117;50.360;3.508;2022-10-20T15:01:32;0.50;;;0.50;;
56201;SDS011;42117;50.360;3.508;2022-10-20T15:06:39;0.68;;;0.68;;
56201;SDS011;42117;50.360;3.508;2022-10-20T15:09:06;3.67;;;0.80;;
56201;SDS011;42117;50.360;3.508;2022-10-20T15:11:39;0.80;;;0.80;;
56201;SDS011;42117;50.360;3.508;2022-10-20T15:14:11;1.15;;;0.68;;
56201;SDS011;42117;50.360;3.508;2022-10-20T15:16:44;2.40;;;1.00;;
56201;SDS011;42117;50.360;3.508;2022-10-20T15:19:11;3.20;;;1.00;;
56201;SDS011;42117;50.360;3.508;2022-10-20T15:21:37;1.50;;;0.82;;
56201;SDS011;42117;50.360;3.508;2022-10-20T15:24:03;3.63;;;1.70;;
56201;SDS011;42117;50.360;3.508;2022-10-20T15:26:29;1.35;;;0.80;;
56201;SDS011;42117;50.360;3.508;2022-10-20T15:28:56;3.78;;;1.08;;
56201;SDS011;42117;50.360;3.508;2022-10-20T15:31:23;2.15;;;1.10;;
56201;SDS011;42117;50.360;3.508;2022-10-20T15:33:50;0.80;;;0.80;;
56201;SDS011;42117;50.360;3.508;2022-10-20T15:36:17;3.75;;;1.00;;
56201;SDS011;42117;50.360;3.508;2022-10-20T15:38:45;2.40;;;0.88;;
56201;SDS011;42117;50.360;3.508;2022-10-20T15:41:15;1.67;;;0.90;;
56201;SDS011;42117;50.360;3.508;2022-10-20T15:43:41;6.75;;;1.05;;
56201;SDS011;42117;50.360;3.508;2022-10-20T15:46:11;5.93;;;0.95;;
56201;SDS011;42117;50.360;3.508;2022-10-20T15:51:03;2.78;;;1.13;;
56201;SDS011;42117;50.360;3.508;2022-10-20T15:53:29;1.17;;;1.10;;
56201;SDS011;42117;50.360;3.508;2022-10-20T15:55:55;3.50;;;1.02;;
56201;SDS011;42117;50.360;3.508;2022-10-20T15:58:21;3.33;;;0.75;;
56201;SDS011;42117;50.360;3.508;2022-10-20T16:00:47;0.90;;;0.90;;
56201;SDS011;42117;50.360;3.508;2022-10-20T16:03:17;1.38;;;0.80;;
56201;SDS011;42117;50.360;3.508;2022-10-20T16:05:43;1.48;;;1.00;;
56201;SDS011;42117;50.360;3.508;2022-10-20T16:08:09;0.75;;;0.63;;
56201;SDS011;42117;50.360;3.508;2022-10-20T16:10:36;6.70;;;0.85;;
56201;SDS011;42117;50.360;3.508;2022-10-20T16:13:03;3.63;;;1.13;;
56201;SDS011;42117;50.360;3.508;2022-10-20T16:15:29;7.32;;;1.70;;
56201;SDS011;42117;50.360;3.508;2022-10-20T16:17:55;4.82;;;1.33;;
56201;SDS011;42117;50.360;3.508;2022-10-20T16:20:21;7.75;;;1.50;;
56201;SDS011;42117;50.360;3.508;2022-10-20T16:22:47;5.15;;;1.70;;
56201;SDS011;42117;50.360;3.508;2022-10-20T16:25:13;1.20;;;1.10;;
56201;SDS011;42117;50.360;3.508;2022-10-20T16:27:39;3.35;;;1.23;;
56201;SDS011;42117;50.360;3.508;2022-10-20T16:30:05;5.25;;;1.10;;
56201;SDS011;42117;50.360;3.508;2022-10-20T16:32:31;4.47;;;1.02;;
56201;SDS011;42117;50.360;3.508;2022-10-20T16:34:57;6.25;;;1.70;;
56201;SDS011;42117;50.360;3.508;2022-10-20T16:37:24;2.55;;;1.80;;
56201;SDS011;42117;50.360;3.508;2022-10-20T16:39:50;1.52;;;1.42;;
56201;SDS011;42117;50.360;3.508;2022-10-20T16:42:16;3.65;;;1.48;;
56201;SDS011;42117;50.360;3.508;2022-10-20T16:44:42;2.15;;;0.93;;
56201;SDS011;42117;50.360;3.508;2022-10-20T16:47:08;0.98;;;0.80;;
56201;SDS011;42117;50.360;3.508;2022-10-20T16:49:35;2.38;;;1.30;;
56201;SDS011;42117;50.360;3.508;2022-10-20T16:52:01;1.30;;;0.95;;
56201;SDS011;42117;50.360;3.508;2022-10-20T16:54:27;1.13;;;0.88;;
56201;SDS011;42117;50.360;3.508;2022-10-20T16:56:53;2.17;;;1.13;;
56201;SDS011;42117;50.360;3.508;2022-10-20T16:59:19;2.33;;;0.63;;
56201;SDS011;42117;50.360;3.508;2022-10-20T17:01:45;5.60;;;0.70;;
56201;SDS011;42117;50.360;3.508;2022-10-20T17:04:11;1.95;;;0.93;;
56201;SDS011;42117;50.360;3.508;2022-10-20T17:06:37;4.40;;;1.02;;
56201;SDS011;42117;50.360;3.508;2022-10-20T17:09:03;4.68;;;1.50;;
56201;SDS011;42117;50.360;3.508;2022-10-20T17:11:30;4.25;;;1.02;;